This is the latest recevied weather packets stored in our database for station/object HK3BJ-11. If no packets are shown the sender has not sent any weather packets the latest 10 day(s).
| Time | Temp. | Humidity | Pressure | Rain* | Wind** | Luminosity | Snow |
|---|---|---|---|---|---|---|---|
| 1787518478 | 17.22° C | 65% | 1013 hPa | 0 mm | - | - | - |
| 1787516576 | 16.11° C | 65% | 1013 hPa | 0 mm | - | - | - |
| 1787515620 | 19.44° C | 68% | 1013 hPa | 0 mm | - | - | - |
| 1787514655 | 18.33° C | 68% | 1013 hPa | 0 mm | - | - | - |
| 1787513693 | 17.22° C | 68% | 1013 hPa | 0 mm | - | - | - |
| 1787512728 | 16.11° C | 68% | 1014 hPa | 0 mm | - | - | - |
| 1787511774 | 15° C | 68% | 1014 hPa | 0 mm | - | - | - |
| 1787510825 | 20° C | 69% | 1014 hPa | 0 mm | - | - | - |
| 1787509876 | 18.89° C | 69% | 1014 hPa | 0 mm | - | - | - |
| 1787508929 | 17.78° C | 69% | 1015 hPa | 0 mm | - | - | - |
| 1787507980 | 16.67° C | 69% | 1015 hPa | 0 mm | - | - | - |
| 1787507035 | 15.56° C | 69% | 1015 hPa | 0 mm | - | - | - |
| 1787506087 | 18.89° C | 76% | 1016 hPa | 0 mm | - | - | - |
| 1787505136 | 17.78° C | 76% | 1016 hPa | 0 mm | - | - | - |
| 1787504188 | 16.67° C | 76% | 1016 hPa | 0 mm | - | - | - |
| 1787503242 | 15.56° C | 76% | 1017 hPa | 0 mm | - | - | - |
| 1787502299 | 20° C | 87% | 1017 hPa | 0 mm | - | - | - |
| 1787501345 | 18.89° C | 87% | 1017 hPa | 0 mm | - | - | - |
| 1787500404 | 17.78° C | 87% | 1017 hPa | 0 mm | - | - | - |
| 1787499461 | 16.67° C | 87% | 1017 hPa | 0 mm | - | - | - |
| 1787498511 | 15.56° C | 87% | 1018 hPa | 0 mm | - | - | - |
| 1787497568 | 14.44° C | 87% | 1018 hPa | 0 mm | - | - | - |
| 1787496628 | 18.89° C | 89% | 1018 hPa | 0 mm | - | - | - |
| 1787495688 | 17.78° C | 89% | 1018 hPa | 0 mm | - | - | - |
| 1787494746 | 16.67° C | 89% | 1019 hPa | 0 mm | - | - | - |
* Rain latest hour (hover to see other rain measurements)
** Current wind speed in m/s (hover to see current wind gust speed)